sensor_id;sensor_type;location;lat;lon;timestamp;P1;durP1;ratioP1;P2;durP2;ratioP2
30872;SDS011;17579;42.690;2.586;2023-06-22T00:00:23;24.38;;;11.20;;
30872;SDS011;17579;42.690;2.586;2023-06-22T00:03:01;21.92;;;11.10;;
30872;SDS011;17579;42.690;2.586;2023-06-22T00:05:44;28.45;;;12.10;;
30872;SDS011;17579;42.690;2.586;2023-06-22T00:08:11;25.77;;;10.63;;
30872;SDS011;17579;42.690;2.586;2023-06-22T00:11:19;25.15;;;11.10;;
30872;SDS011;17579;42.690;2.586;2023-06-22T00:13:35;23.98;;;10.48;;
30872;SDS011;17579;42.690;2.586;2023-06-22T00:16:03;23.85;;;11.55;;
30872;SDS011;17579;42.690;2.586;2023-06-22T00:18:37;31.58;;;12.48;;
30872;SDS011;17579;42.690;2.586;2023-06-22T00:21:12;22.65;;;12.60;;
30872;SDS011;17579;42.690;2.586;2023-06-22T00:23:53;36.88;;;13.73;;
30872;SDS011;17579;42.690;2.586;2023-06-22T00:26:22;29.98;;;13.15;;
30872;SDS011;17579;42.690;2.586;2023-06-22T00:28:51;32.25;;;12.20;;
30872;SDS011;17579;42.690;2.586;2023-06-22T00:31:17;31.00;;;12.93;;
30872;SDS011;17579;42.690;2.586;2023-06-22T00:33:45;25.13;;;12.57;;
30872;SDS011;17579;42.690;2.586;2023-06-22T00:36:23;26.92;;;13.27;;
30872;SDS011;17579;42.690;2.586;2023-06-22T00:39:02;27.92;;;13.07;;
30872;SDS011;17579;42.690;2.586;2023-06-22T00:41:38;26.17;;;12.63;;
30872;SDS011;17579;42.690;2.586;2023-06-22T00:44:09;28.98;;;13.57;;
30872;SDS011;17579;42.690;2.586;2023-06-22T00:46:57;23.83;;;12.88;;
30872;SDS011;17579;42.690;2.586;2023-06-22T00:49:56;22.42;;;12.55;;
30872;SDS011;17579;42.690;2.586;2023-06-22T00:52:39;20.08;;;12.77;;
30872;SDS011;17579;42.690;2.586;2023-06-22T00:55:09;33.78;;;13.35;;
30872;SDS011;17579;42.690;2.586;2023-06-22T00:57:39;22.23;;;12.68;;
30872;SDS011;17579;42.690;2.586;2023-06-22T01:00:15;23.98;;;13.10;;
30872;SDS011;17579;42.690;2.586;2023-06-22T01:02:55;26.33;;;13.05;;
30872;SDS011;17579;42.690;2.586;2023-06-22T01:05:28;27.25;;;13.25;;
30872;SDS011;17579;42.690;2.586;2023-06-22T01:08:07;23.40;;;13.38;;
30872;SDS011;17579;42.690;2.586;2023-06-22T01:13:34;27.33;;;14.07;;
30872;SDS011;17579;42.690;2.586;2023-06-22T01:16:11;22.40;;;12.45;;
30872;SDS011;17579;42.690;2.586;2023-06-22T01:22:06;24.60;;;12.82;;
30872;SDS011;17579;42.690;2.586;2023-06-22T01:30:07;20.58;;;12.15;;
30872;SDS011;17579;42.690;2.586;2023-06-22T01:32:36;22.92;;;12.57;;
30872;SDS011;17579;42.690;2.586;2023-06-22T01:35:06;22.02;;;12.20;;
30872;SDS011;17579;42.690;2.586;2023-06-22T01:38:03;22.55;;;12.90;;
30872;SDS011;17579;42.690;2.586;2023-06-22T01:40:36;27.73;;;12.98;;
30872;SDS011;17579;42.690;2.586;2023-06-22T01:43:06;27.17;;;12.35;;
30872;SDS011;17579;42.690;2.586;2023-06-22T01:45:35;26.55;;;12.70;;
30872;SDS011;17579;42.690;2.586;2023-06-22T01:48:10;25.13;;;12.02;;
30872;SDS011;17579;42.690;2.586;2023-06-22T01:51:04;24.58;;;12.02;;
30872;SDS011;17579;42.690;2.586;2023-06-22T01:53:30;21.23;;;11.30;;
30872;SDS011;17579;42.690;2.586;2023-06-22T01:56:07;24.48;;;12.80;;
30872;SDS011;17579;42.690;2.586;2023-06-22T01:58:44;20.98;;;12.18;;
30872;SDS011;17579;42.690;2.586;2023-06-22T02:01:22;27.63;;;12.57;;
30872;SDS011;17579;42.690;2.586;2023-06-22T02:04:03;24.23;;;13.15;;
30872;SDS011;17579;42.690;2.586;2023-06-22T02:06:41;25.20;;;13.18;;
30872;SDS011;17579;42.690;2.586;2023-06-22T02:09:14;23.75;;;12.38;;
30872;SDS011;17579;42.690;2.586;2023-06-22T02:11:46;21.40;;;11.38;;
30872;SDS011;17579;42.690;2.586;2023-06-22T02:14:26;23.65;;;11.80;;
30872;SDS011;17579;42.690;2.586;2023-06-22T02:16:53;24.33;;;12.15;;
30872;SDS011;17579;42.690;2.586;2023-06-22T02:19:51;20.95;;;11.25;;
30872;SDS011;17579;42.690;2.586;2023-06-22T02:22:19;19.35;;;11.90;;
30872;SDS011;17579;42.690;2.586;2023-06-22T02:24:49;17.65;;;11.15;;
30872;SDS011;17579;42.690;2.586;2023-06-22T02:27:35;19.67;;;11.93;;
30872;SDS011;17579;42.690;2.586;2023-06-22T02:30:08;22.80;;;11.98;;
30872;SDS011;17579;42.690;2.586;2023-06-22T02:32:43;19.95;;;13.40;;
30872;SDS011;17579;42.690;2.586;2023-06-22T02:35:19;18.45;;;12.38;;
30872;SDS011;17579;42.690;2.586;2023-06-22T02:37:47;18.38;;;12.45;;
30872;SDS011;17579;42.690;2.586;2023-06-22T02:40:19;20.65;;;11.77;;
30872;SDS011;17579;42.690;2.586;2023-06-22T02:42:57;18.05;;;11.05;;
30872;SDS011;17579;42.690;2.586;2023-06-22T02:45:34;15.52;;;11.77;;
30872;SDS011;17579;42.690;2.586;2023-06-22T02:48:10;18.17;;;11.48;;
30872;SDS011;17579;42.690;2.586;2023-06-22T02:50:53;28.20;;;13.13;;
30872;SDS011;17579;42.690;2.586;2023-06-22T02:53:19;16.40;;;11.63;;
30872;SDS011;17579;42.690;2.586;2023-06-22T02:55:52;16.15;;;12.80;;
30872;SDS011;17579;42.690;2.586;2023-06-22T02:58:43;17.55;;;12.10;;
30872;SDS011;17579;42.690;2.586;2023-06-22T03:01:15;18.27;;;12.80;;
30872;SDS011;17579;42.690;2.586;2023-06-22T03:03:53;17.10;;;11.98;;
30872;SDS011;17579;42.690;2.586;2023-06-22T03:06:49;18.63;;;11.65;;
30872;SDS011;17579;42.690;2.586;2023-06-22T03:09:28;18.05;;;12.75;;
30872;SDS011;17579;42.690;2.586;2023-06-22T03:11:59;13.80;;;11.77;;
30872;SDS011;17579;42.690;2.586;2023-06-22T03:14:34;19.45;;;12.73;;
30872;SDS011;17579;42.690;2.586;2023-06-22T03:17:09;17.90;;;12.20;;
30872;SDS011;17579;42.690;2.586;2023-06-22T03:19:40;17.80;;;11.57;;
30872;SDS011;17579;42.690;2.586;2023-06-22T03:22:11;15.20;;;11.70;;
30872;SDS011;17579;42.690;2.586;2023-06-22T03:24:45;17.58;;;11.90;;
30872;SDS011;17579;42.690;2.586;2023-06-22T03:27:20;13.85;;;11.10;;
30872;SDS011;17579;42.690;2.586;2023-06-22T03:29:48;17.33;;;12.32;;
30872;SDS011;17579;42.690;2.586;2023-06-22T03:32:19;15.50;;;11.65;;
30872;SDS011;17579;42.690;2.586;2023-06-22T03:34:47;17.17;;;11.52;;
30872;SDS011;17579;42.690;2.586;2023-06-22T03:37:15;18.58;;;11.75;;
30872;SDS011;17579;42.690;2.586;2023-06-22T03:39:44;17.98;;;10.40;;
30872;SDS011;17579;42.690;2.586;2023-06-22T03:42:15;18.25;;;11.60;;
30872;SDS011;17579;42.690;2.586;2023-06-22T03:44:40;21.35;;;11.25;;
30872;SDS011;17579;42.690;2.586;2023-06-22T03:47:25;22.65;;;11.98;;
30872;SDS011;17579;42.690;2.586;2023-06-22T03:49:51;19.08;;;11.95;;
30872;SDS011;17579;42.690;2.586;2023-06-22T03:52:20;21.55;;;11.30;;
30872;SDS011;17579;42.690;2.586;2023-06-22T03:54:50;20.85;;;11.73;;
30872;SDS011;17579;42.690;2.586;2023-06-22T03:57:26;15.25;;;10.55;;
30872;SDS011;17579;42.690;2.586;2023-06-22T03:59:51;16.63;;;9.70;;
30872;SDS011;17579;42.690;2.586;2023-06-22T04:02:21;15.77;;;9.80;;
30872;SDS011;17579;42.690;2.586;2023-06-22T04:04:50;18.50;;;9.38;;
30872;SDS011;17579;42.690;2.586;2023-06-22T04:07:15;15.60;;;9.40;;
30872;SDS011;17579;42.690;2.586;2023-06-22T04:09:59;16.88;;;9.25;;
30872;SDS011;17579;42.690;2.586;2023-06-22T04:12:54;12.02;;;9.18;;
30872;SDS011;17579;42.690;2.586;2023-06-22T04:16:18;11.63;;;8.35;;
30872;SDS011;17579;42.690;2.586;2023-06-22T04:19:08;12.32;;;8.05;;
30872;SDS011;17579;42.690;2.586;2023-06-22T04:21:59;11.27;;;7.97;;
30872;SDS011;17579;42.690;2.586;2023-06-22T04:24:35;9.00;;;6.95;;
30872;SDS011;17579;42.690;2.586;2023-06-22T04:27:22;11.43;;;6.47;;
30872;SDS011;17579;42.690;2.586;2023-06-22T04:29:50;6.53;;;5.32;;
30872;SDS011;17579;42.690;2.586;2023-06-22T04:32:19;6.90;;;4.50;;
30872;SDS011;17579;42.690;2.586;2023-06-22T04:34:55;5.60;;;5.00;;
30872;SDS011;17579;42.690;2.586;2023-06-22T04:37:24;7.50;;;5.10;;
30872;SDS011;17579;42.690;2.586;2023-06-22T04:39:50;5.25;;;4.18;;
30872;SDS011;17579;42.690;2.586;2023-06-22T04:42:37;4.13;;;3.67;;
30872;SDS011;17579;42.690;2.586;2023-06-22T04:45:08;6.97;;;3.40;;
30872;SDS011;17579;42.690;2.586;2023-06-22T04:47:36;4.45;;;3.75;;
30872;SDS011;17579;42.690;2.586;2023-06-22T04:50:14;4.45;;;4.03;;
30872;SDS011;17579;42.690;2.586;2023-06-22T04:52:47;5.07;;;3.13;;
30872;SDS011;17579;42.690;2.586;2023-06-22T04:55:23;2.83;;;2.60;;
30872;SDS011;17579;42.690;2.586;2023-06-22T04:57:52;4.20;;;2.75;;
30872;SDS011;17579;42.690;2.586;2023-06-22T05:00:23;2.70;;;2.45;;
30872;SDS011;17579;42.690;2.586;2023-06-22T05:02:57;2.97;;;2.45;;
30872;SDS011;17579;42.690;2.586;2023-06-22T05:05:25;2.17;;;1.92;;
30872;SDS011;17579;42.690;2.586;2023-06-22T05:07:53;5.68;;;2.63;;
30872;SDS011;17579;42.690;2.586;2023-06-22T05:10:26;4.18;;;2.50;;
30872;SDS011;17579;42.690;2.586;2023-06-22T05:12:52;2.33;;;2.13;;
30872;SDS011;17579;42.690;2.586;2023-06-22T05:15:24;4.55;;;2.55;;
30872;SDS011;17579;42.690;2.586;2023-06-22T05:18:03;1.98;;;1.83;;
30872;SDS011;17579;42.690;2.586;2023-06-22T05:20:30;2.50;;;2.15;;
30872;SDS011;17579;42.690;2.586;2023-06-22T05:22:59;2.38;;;2.17;;
30872;SDS011;17579;42.690;2.586;2023-06-22T05:25:35;2.65;;;2.40;;
30872;SDS011;17579;42.690;2.586;2023-06-22T05:28:08;2.58;;;2.25;;
30872;SDS011;17579;42.690;2.586;2023-06-22T05:30:54;2.38;;;2.17;;
30872;SDS011;17579;42.690;2.586;2023-06-22T05:33:22;2.00;;;1.77;;
30872;SDS011;17579;42.690;2.586;2023-06-22T05:35:51;2.38;;;2.17;;
30872;SDS011;17579;42.690;2.586;2023-06-22T05:38:25;3.22;;;2.03;;
30872;SDS011;17579;42.690;2.586;2023-06-22T05:40:53;2.90;;;1.90;;
30872;SDS011;17579;42.690;2.586;2023-06-22T05:43:22;2.58;;;2.00;;
30872;SDS011;17579;42.690;2.586;2023-06-22T05:46:01;2.40;;;2.20;;
30872;SDS011;17579;42.690;2.586;2023-06-22T05:48:55;2.88;;;1.98;;
30872;SDS011;17579;42.690;2.586;2023-06-22T05:51:28;3.22;;;2.10;;
30872;SDS011;17579;42.690;2.586;2023-06-22T05:54:19;2.53;;;2.33;;
30872;SDS011;17579;42.690;2.586;2023-06-22T05:56:50;3.67;;;2.30;;
30872;SDS011;17579;42.690;2.586;2023-06-22T05:59:36;2.55;;;2.38;;
30872;SDS011;17579;42.690;2.586;2023-06-22T06:02:15;1.90;;;1.80;;
30872;SDS011;17579;42.690;2.586;2023-06-22T06:04:46;2.63;;;2.30;;
30872;SDS011;17579;42.690;2.586;2023-06-22T06:07:12;2.40;;;2.20;;
30872;SDS011;17579;42.690;2.586;2023-06-22T06:09:43;2.65;;;2.22;;
30872;SDS011;17579;42.690;2.586;2023-06-22T06:12:29;2.40;;;2.08;;
30872;SDS011;17579;42.690;2.586;2023-06-22T06:15:19;3.10;;;2.35;;
30872;SDS011;17579;42.690;2.586;2023-06-22T06:17:52;2.60;;;2.40;;
30872;SDS011;17579;42.690;2.586;2023-06-22T06:20:20;2.50;;;2.30;;
30872;SDS011;17579;42.690;2.586;2023-06-22T06:22:47;2.60;;;2.30;;
30872;SDS011;17579;42.690;2.586;2023-06-22T06:25:19;2.40;;;2.20;;
30872;SDS011;17579;42.690;2.586;2023-06-22T06:27:47;3.20;;;2.40;;
30872;SDS011;17579;42.690;2.586;2023-06-22T06:30:39;2.42;;;2.22;;
30872;SDS011;17579;42.690;2.586;2023-06-22T06:33:51;2.60;;;2.40;;
30872;SDS011;17579;42.690;2.586;2023-06-22T06:36:21;2.88;;;2.42;;
30872;SDS011;17579;42.690;2.586;2023-06-22T06:38:51;2.65;;;2.40;;
30872;SDS011;17579;42.690;2.586;2023-06-22T06:41:37;2.13;;;1.92;;
30872;SDS011;17579;42.690;2.586;2023-06-22T06:44:31;2.72;;;2.10;;
30872;SDS011;17579;42.690;2.586;2023-06-22T06:47:03;3.17;;;2.25;;
30872;SDS011;17579;42.690;2.586;2023-06-22T06:49:33;1.98;;;1.85;;
30872;SDS011;17579;42.690;2.586;2023-06-22T06:52:03;2.05;;;1.95;;
30872;SDS011;17579;42.690;2.586;2023-06-22T06:54:37;2.05;;;1.90;;
30872;SDS011;17579;42.690;2.586;2023-06-22T06:57:08;1.58;;;1.48;;
30872;SDS011;17579;42.690;2.586;2023-06-22T06:59:41;2.50;;;1.80;;
30872;SDS011;17579;42.690;2.586;2023-06-22T07:02:07;2.13;;;1.90;;
30872;SDS011;17579;42.690;2.586;2023-06-22T07:04:48;1.80;;;1.70;;
30872;SDS011;17579;42.690;2.586;2023-06-22T07:08:16;1.80;;;1.70;;
30872;SDS011;17579;42.690;2.586;2023-06-22T07:10:52;1.85;;;1.70;;
30872;SDS011;17579;42.690;2.586;2023-06-22T07:13:31;1.80;;;1.70;;
30872;SDS011;17579;42.690;2.586;2023-06-22T07:19:13;2.35;;;2.15;;
30872;SDS011;17579;42.690;2.586;2023-06-22T07:21:54;3.35;;;1.95;;
30872;SDS011;17579;42.690;2.586;2023-06-22T07:24:21;2.10;;;1.90;;
30872;SDS011;17579;42.690;2.586;2023-06-22T07:26:50;2.25;;;1.70;;
30872;SDS011;17579;42.690;2.586;2023-06-22T07:29:23;2.17;;;1.92;;
30872;SDS011;17579;42.690;2.586;2023-06-22T07:31:51;2.13;;;1.92;;
30872;SDS011;17579;42.690;2.586;2023-06-22T07:34:30;3.17;;;2.20;;
30872;SDS011;17579;42.690;2.586;2023-06-22T07:37:00;2.05;;;1.90;;
30872;SDS011;17579;42.690;2.586;2023-06-22T07:39:28;2.25;;;1.88;;
30872;SDS011;17579;42.690;2.586;2023-06-22T07:42:25;2.20;;;1.95;;
30872;SDS011;17579;42.690;2.586;2023-06-22T07:44:51;2.25;;;2.08;;
30872;SDS011;17579;42.690;2.586;2023-06-22T07:47:21;2.40;;;1.92;;
30872;SDS011;17579;42.690;2.586;2023-06-22T07:49:52;1.95;;;1.85;;
30872;SDS011;17579;42.690;2.586;2023-06-22T07:52:36;2.58;;;2.38;;
30872;SDS011;17579;42.690;2.586;2023-06-22T07:55:11;2.30;;;2.10;;
30872;SDS011;17579;42.690;2.586;2023-06-22T07:57:43;2.70;;;2.50;;
30872;SDS011;17579;42.690;2.586;2023-06-22T08:00:22;2.67;;;2.47;;
30872;SDS011;17579;42.690;2.586;2023-06-22T08:03:38;2.47;;;2.28;;
30872;SDS011;17579;42.690;2.586;2023-06-22T08:05:55;4.45;;;2.58;;
30872;SDS011;17579;42.690;2.586;2023-06-22T08:08:21;4.97;;;2.80;;
30872;SDS011;17579;42.690;2.586;2023-06-22T08:10:47;2.97;;;2.72;;
30872;SDS011;17579;42.690;2.586;2023-06-22T08:16:07;3.58;;;2.50;;
30872;SDS011;17579;42.690;2.586;2023-06-22T08:18:50;3.22;;;2.92;;
30872;SDS011;17579;42.690;2.586;2023-06-22T08:21:43;3.28;;;2.85;;
30872;SDS011;17579;42.690;2.586;2023-06-22T08:24:19;3.10;;;2.60;;
30872;SDS011;17579;42.690;2.586;2023-06-22T08:27:07;3.40;;;2.70;;
30872;SDS011;17579;42.690;2.586;2023-06-22T08:29:38;3.47;;;2.83;;
30872;SDS011;17579;42.690;2.586;2023-06-22T08:32:15;2.85;;;2.65;;
30872;SDS011;17579;42.690;2.586;2023-06-22T08:34:52;2.95;;;2.63;;
30872;SDS011;17579;42.690;2.586;2023-06-22T08:37:45;3.17;;;2.88;;
30872;SDS011;17579;42.690;2.586;2023-06-22T08:40:19;3.53;;;3.20;;
30872;SDS011;17579;42.690;2.586;2023-06-22T08:42:57;2.63;;;2.42;;
30872;SDS011;17579;42.690;2.586;2023-06-22T08:45:26;2.58;;;2.38;;
30872;SDS011;17579;42.690;2.586;2023-06-22T08:48:05;5.35;;;2.80;;
30872;SDS011;17579;42.690;2.586;2023-06-22T08:50:39;2.97;;;2.67;;
30872;SDS011;17579;42.690;2.586;2023-06-22T08:53:08;2.75;;;2.55;;
30872;SDS011;17579;42.690;2.586;2023-06-22T08:56:04;2.30;;;2.10;;
30872;SDS011;17579;42.690;2.586;2023-06-22T08:58:41;2.50;;;2.30;;
30872;SDS011;17579;42.690;2.586;2023-06-22T09:01:09;3.28;;;2.20;;
30872;SDS011;17579;42.690;2.586;2023-06-22T09:03:38;7.47;;;2.67;;
30872;SDS011;17579;42.690;2.586;2023-06-22T09:06:13;2.95;;;2.38;;
30872;SDS011;17579;42.690;2.586;2023-06-22T09:08:42;2.97;;;2.65;;
30872;SDS011;17579;42.690;2.586;2023-06-22T09:14:10;2.83;;;2.40;;
30872;SDS011;17579;42.690;2.586;2023-06-22T09:16:37;2.13;;;2.03;;
30872;SDS011;17579;42.690;2.586;2023-06-22T09:19:11;3.60;;;2.28;;
30872;SDS011;17579;42.690;2.586;2023-06-22T09:21:57;2.17;;;1.98;;
30872;SDS011;17579;42.690;2.586;2023-06-22T09:24:25;2.45;;;2.25;;
30872;SDS011;17579;42.690;2.586;2023-06-22T09:27:02;2.00;;;1.90;;
30872;SDS011;17579;42.690;2.586;2023-06-22T09:29:33;2.10;;;1.90;;
30872;SDS011;17579;42.690;2.586;2023-06-22T09:32:13;1.90;;;1.70;;
30872;SDS011;17579;42.690;2.586;2023-06-22T09:34:42;2.30;;;1.90;;
30872;SDS011;17579;42.690;2.586;2023-06-22T09:37:10;2.40;;;1.90;;
30872;SDS011;17579;42.690;2.586;2023-06-22T09:39:39;3.97;;;2.00;;
30872;SDS011;17579;42.690;2.586;2023-06-22T09:42:10;2.30;;;2.08;;
30872;SDS011;17579;42.690;2.586;2023-06-22T09:44:42;1.75;;;1.65;;
30872;SDS011;17579;42.690;2.586;2023-06-22T09:47:32;1.92;;;1.83;;
30872;SDS011;17579;42.690;2.586;2023-06-22T09:50:06;2.67;;;2.03;;
30872;SDS011;17579;42.690;2.586;2023-06-22T09:52:52;2.03;;;1.83;;
30872;SDS011;17579;42.690;2.586;2023-06-22T09:55:44;1.70;;;1.60;;
30872;SDS011;17579;42.690;2.586;2023-06-22T09:58:19;1.88;;;1.70;;
30872;SDS011;17579;42.690;2.586;2023-06-22T10:00:54;3.70;;;1.92;;
30872;SDS011;17579;42.690;2.586;2023-06-22T10:03:30;4.30;;;1.85;;
30872;SDS011;17579;42.690;2.586;2023-06-22T10:05:56;2.45;;;1.88;;
30872;SDS011;17579;42.690;2.586;2023-06-22T10:08:45;1.92;;;1.83;;
30872;SDS011;17579;42.690;2.586;2023-06-22T10:11:21;1.70;;;1.60;;
30872;SDS011;17579;42.690;2.586;2023-06-22T10:13:57;1.65;;;1.55;;
30872;SDS011;17579;42.690;2.586;2023-06-22T10:16:43;2.05;;;1.85;;
30872;SDS011;17579;42.690;2.586;2023-06-22T10:19:28;1.92;;;1.80;;
30872;SDS011;17579;42.690;2.586;2023-06-22T10:22:04;2.28;;;2.00;;
30872;SDS011;17579;42.690;2.586;2023-06-22T10:24:40;2.03;;;1.80;;
30872;SDS011;17579;42.690;2.586;2023-06-22T10:27:14;1.63;;;1.52;;
30872;SDS011;17579;42.690;2.586;2023-06-22T10:29:49;2.08;;;1.85;;
30872;SDS011;17579;42.690;2.586;2023-06-22T10:32:30;2.45;;;1.70;;
30872;SDS011;17579;42.690;2.586;2023-06-22T10:35:05;1.63;;;1.52;;
30872;SDS011;17579;42.690;2.586;2023-06-22T10:37:52;1.70;;;1.60;;
30872;SDS011;17579;42.690;2.586;2023-06-22T10:40:41;2.20;;;1.75;;
30872;SDS011;17579;42.690;2.586;2023-06-22T10:43:29;1.85;;;1.73;;
30872;SDS011;17579;42.690;2.586;2023-06-22T10:45:58;1.90;;;1.77;;
30872;SDS011;17579;42.690;2.586;2023-06-22T10:48:31;1.88;;;1.50;;
30872;SDS011;17579;42.690;2.586;2023-06-22T10:51:20;2.08;;;1.75;;
30872;SDS011;17579;42.690;2.586;2023-06-22T10:53:48;2.05;;;1.60;;
30872;SDS011;17579;42.690;2.586;2023-06-22T10:56:16;1.67;;;1.58;;
30872;SDS011;17579;42.690;2.586;2023-06-22T10:58:50;1.98;;;1.88;;
30872;SDS011;17579;42.690;2.586;2023-06-22T11:01:20;1.70;;;1.50;;
30872;SDS011;17579;42.690;2.586;2023-06-22T11:04:03;1.70;;;1.33;;
30872;SDS011;17579;42.690;2.586;2023-06-22T11:09:28;1.25;;;1.15;;
30872;SDS011;17579;42.690;2.586;2023-06-22T11:11:55;1.75;;;1.13;;
30872;SDS011;17579;42.690;2.586;2023-06-22T11:14:37;1.10;;;1.00;;
30872;SDS011;17579;42.690;2.586;2023-06-22T11:17:09;0.85;;;0.85;;
30872;SDS011;17579;42.690;2.586;2023-06-22T11:20:49;0.90;;;0.90;;
30872;SDS011;17579;42.690;2.586;2023-06-22T11:22:52;1.13;;;1.13;;
30872;SDS011;17579;42.690;2.586;2023-06-22T11:25:35;0.80;;;0.80;;
30872;SDS011;17579;42.690;2.586;2023-06-22T11:28:11;1.00;;;0.90;;
30872;SDS011;17579;42.690;2.586;2023-06-22T11:30:49;0.75;;;0.75;;
30872;SDS011;17579;42.690;2.586;2023-06-22T11:33:27;0.88;;;0.88;;
30872;SDS011;17579;42.690;2.586;2023-06-22T11:36:13;0.77;;;0.77;;
30872;SDS011;17579;42.690;2.586;2023-06-22T11:41:47;0.70;;;0.70;;
30872;SDS011;17579;42.690;2.586;2023-06-22T11:44:21;1.02;;;1.02;;
30872;SDS011;17579;42.690;2.586;2023-06-22T11:46:49;0.80;;;0.80;;
30872;SDS011;17579;42.690;2.586;2023-06-22T11:49:51;1.00;;;1.00;;
30872;SDS011;17579;42.690;2.586;2023-06-22T11:52:21;1.35;;;0.93;;
30872;SDS011;17579;42.690;2.586;2023-06-22T11:55:25;0.90;;;0.90;;
30872;SDS011;17579;42.690;2.586;2023-06-22T11:57:54;0.93;;;0.88;;
30872;SDS011;17579;42.690;2.586;2023-06-22T12:00:44;0.60;;;0.60;;
30872;SDS011;17579;42.690;2.586;2023-06-22T12:03:12;1.10;;;1.00;;
30872;SDS011;17579;42.690;2.586;2023-06-22T12:05:43;1.38;;;1.05;;
30872;SDS011;17579;42.690;2.586;2023-06-22T12:11:27;1.05;;;1.05;;
30872;SDS011;17579;42.690;2.586;2023-06-22T12:13:56;1.20;;;1.10;;
30872;SDS011;17579;42.690;2.586;2023-06-22T12:16:32;0.90;;;0.90;;
30872;SDS011;17579;42.690;2.586;2023-06-22T12:19:11;1.13;;;1.02;;
30872;SDS011;17579;42.690;2.586;2023-06-22T12:21:39;0.90;;;0.90;;
30872;SDS011;17579;42.690;2.586;2023-06-22T12:27:02;1.10;;;1.10;;
30872;SDS011;17579;42.690;2.586;2023-06-22T12:29:54;1.05;;;0.98;;
30872;SDS011;17579;42.690;2.586;2023-06-22T12:32:37;1.60;;;1.25;;
30872;SDS011;17579;42.690;2.586;2023-06-22T12:35:15;1.60;;;1.50;;
30872;SDS011;17579;42.690;2.586;2023-06-22T12:37:51;1.45;;;1.15;;
30872;SDS011;17579;42.690;2.586;2023-06-22T12:40:18;1.50;;;1.40;;
30872;SDS011;17579;42.690;2.586;2023-06-22T12:42:54;2.72;;;1.50;;
30872;SDS011;17579;42.690;2.586;2023-06-22T12:45:22;1.58;;;1.48;;
30872;SDS011;17579;42.690;2.586;2023-06-22T12:48:04;1.40;;;1.30;;
30872;SDS011;17579;42.690;2.586;2023-06-22T12:50:38;1.65;;;1.55;;
30872;SDS011;17579;42.690;2.586;2023-06-22T12:53:14;1.40;;;1.30;;
30872;SDS011;17579;42.690;2.586;2023-06-22T12:55:43;1.80;;;1.70;;
30872;SDS011;17579;42.690;2.586;2023-06-22T12:58:11;1.55;;;1.45;;
30872;SDS011;17579;42.690;2.586;2023-06-22T13:00:39;1.80;;;1.70;;
30872;SDS011;17579;42.690;2.586;2023-06-22T13:03:23;1.50;;;1.40;;
30872;SDS011;17579;42.690;2.586;2023-06-22T13:06:14;1.77;;;1.67;;
30872;SDS011;17579;42.690;2.586;2023-06-22T13:09:10;1.70;;;1.60;;
30872;SDS011;17579;42.690;2.586;2023-06-22T13:11:38;1.90;;;1.80;;
30872;SDS011;17579;42.690;2.586;2023-06-22T13:14:13;1.60;;;1.50;;
30872;SDS011;17579;42.690;2.586;2023-06-22T13:16:41;2.08;;;1.92;;
30872;SDS011;17579;42.690;2.586;2023-06-22T13:19:07;2.45;;;1.80;;
30872;SDS011;17579;42.690;2.586;2023-06-22T13:21:35;1.65;;;1.55;;
30872;SDS011;17579;42.690;2.586;2023-06-22T13:24:17;3.25;;;1.85;;
30872;SDS011;17579;42.690;2.586;2023-06-22T13:27:02;2.30;;;2.10;;
30872;SDS011;17579;42.690;2.586;2023-06-22T13:29:37;1.92;;;1.83;;
30872;SDS011;17579;42.690;2.586;2023-06-22T13:34:51;1.95;;;1.85;;
30872;SDS011;17579;42.690;2.586;2023-06-22T13:37:20;1.90;;;1.75;;
30872;SDS011;17579;42.690;2.586;2023-06-22T13:39:46;2.25;;;2.05;;
30872;SDS011;17579;42.690;2.586;2023-06-22T13:45:23;2.20;;;2.00;;
30872;SDS011;17579;42.690;2.586;2023-06-22T13:47:55;3.45;;;2.20;;
30872;SDS011;17579;42.690;2.586;2023-06-22T13:50:29;2.40;;;2.20;;
30872;SDS011;17579;42.690;2.586;2023-06-22T13:53:13;2.20;;;2.00;;
30872;SDS011;17579;42.690;2.586;2023-06-22T13:55:48;3.05;;;2.10;;
30872;SDS011;17579;42.690;2.586;2023-06-22T13:58:26;2.33;;;2.13;;
30872;SDS011;17579;42.690;2.586;2023-06-22T14:00:54;2.33;;;2.13;;
30872;SDS011;17579;42.690;2.586;2023-06-22T14:03:54;2.30;;;2.10;;
30872;SDS011;17579;42.690;2.586;2023-06-22T14:06:43;2.42;;;2.22;;
30872;SDS011;17579;42.690;2.586;2023-06-22T14:09:37;2.70;;;2.03;;
30872;SDS011;17579;42.690;2.586;2023-06-22T14:12:05;2.53;;;2.30;;
30872;SDS011;17579;42.690;2.586;2023-06-22T14:14:32;2.55;;;2.35;;
30872;SDS011;17579;42.690;2.586;2023-06-22T14:17:24;2.40;;;2.20;;
30872;SDS011;17579;42.690;2.586;2023-06-22T14:19:51;2.40;;;2.20;;
30872;SDS011;17579;42.690;2.586;2023-06-22T14:22:20;2.40;;;2.20;;
30872;SDS011;17579;42.690;2.586;2023-06-22T14:24:54;2.63;;;2.15;;
30872;SDS011;17579;42.690;2.586;2023-06-22T14:27:31;2.60;;;2.40;;
30872;SDS011;17579;42.690;2.586;2023-06-22T14:30:11;2.78;;;2.58;;
30872;SDS011;17579;42.690;2.586;2023-06-22T14:35:51;2.97;;;2.78;;
30872;SDS011;17579;42.690;2.586;2023-06-22T14:38:38;2.75;;;2.55;;
30872;SDS011;17579;42.690;2.586;2023-06-22T14:41:18;2.58;;;2.33;;
30872;SDS011;17579;42.690;2.586;2023-06-22T14:43:53;2.63;;;2.42;;
30872;SDS011;17579;42.690;2.586;2023-06-22T14:46:19;2.63;;;2.42;;
30872;SDS011;17579;42.690;2.586;2023-06-22T14:48:53;2.88;;;2.55;;
30872;SDS011;17579;42.690;2.586;2023-06-22T14:51:18;2.63;;;2.42;;
30872;SDS011;17579;42.690;2.586;2023-06-22T14:53:55;2.88;;;2.67;;
30872;SDS011;17579;42.690;2.586;2023-06-22T14:56:24;2.60;;;2.40;;
30872;SDS011;17579;42.690;2.586;2023-06-22T14:58:52;2.97;;;2.67;;
30872;SDS011;17579;42.690;2.586;2023-06-22T15:01:38;3.03;;;2.40;;
30872;SDS011;17579;42.690;2.586;2023-06-22T15:04:09;2.45;;;2.25;;
30872;SDS011;17579;42.690;2.586;2023-06-22T15:09:44;2.20;;;2.00;;
30872;SDS011;17579;42.690;2.586;2023-06-22T15:14:56;8.40;;;2.53;;
30872;SDS011;17579;42.690;2.586;2023-06-22T15:17:25;2.90;;;2.60;;
30872;SDS011;17579;42.690;2.586;2023-06-22T15:19:57;2.50;;;2.22;;
30872;SDS011;17579;42.690;2.586;2023-06-22T15:22:45;2.47;;;2.28;;
30872;SDS011;17579;42.690;2.586;2023-06-22T15:25:17;2.63;;;2.42;;
30872;SDS011;17579;42.690;2.586;2023-06-22T15:27:51;2.90;;;2.58;;
30872;SDS011;17579;42.690;2.586;2023-06-22T15:30:28;3.63;;;2.70;;
30872;SDS011;17579;42.690;2.586;2023-06-22T15:33:19;2.85;;;2.65;;
30872;SDS011;17579;42.690;2.586;2023-06-22T15:38:56;3.08;;;2.88;;
30872;SDS011;17579;42.690;2.586;2023-06-22T15:41:24;2.70;;;2.50;;
30872;SDS011;17579;42.690;2.586;2023-06-22T15:43:54;3.75;;;2.78;;
30872;SDS011;17579;42.690;2.586;2023-06-22T15:46:20;2.40;;;2.30;;
30872;SDS011;17579;42.690;2.586;2023-06-22T15:48:51;2.83;;;2.63;;
30872;SDS011;17579;42.690;2.586;2023-06-22T15:51:25;2.80;;;2.58;;
30872;SDS011;17579;42.690;2.586;2023-06-22T15:54:51;2.78;;;2.50;;
30872;SDS011;17579;42.690;2.586;2023-06-22T15:57:05;3.95;;;2.70;;
30872;SDS011;17579;42.690;2.586;2023-06-22T15:59:48;3.00;;;2.75;;
30872;SDS011;17579;42.690;2.586;2023-06-22T16:02:16;3.10;;;2.80;;
30872;SDS011;17579;42.690;2.586;2023-06-22T16:04:45;2.60;;;2.40;;
30872;SDS011;17579;42.690;2.586;2023-06-22T16:07:23;2.63;;;2.42;;
30872;SDS011;17579;42.690;2.586;2023-06-22T16:09:49;3.28;;;2.97;;
30872;SDS011;17579;42.690;2.586;2023-06-22T16:12:33;3.03;;;2.78;;
30872;SDS011;17579;42.690;2.586;2023-06-22T16:15:02;2.80;;;2.58;;
30872;SDS011;17579;42.690;2.586;2023-06-22T16:17:47;2.53;;;2.33;;
30872;SDS011;17579;42.690;2.586;2023-06-22T16:20:19;3.22;;;2.92;;
30872;SDS011;17579;42.690;2.586;2023-06-22T16:22:49;2.83;;;2.60;;